Terminal Aerodrome Forecast
Issued by NWS

Home | Current Version | Previous Version | Text Only | Print | Product List | Glossary On
Versions: 1 2 3 4 5 6 7 8 9 10 11 12 13 14 15 16 17 18 19 20 21 22 23 24
000
FTUS45 KREV 111100
TAFTRK
TAF
KTRK 111125Z 1112/1212 VRB04KT P6SM FEW080 BKN120
     FM111900 25010G17KT P6SM SCT080 SCT120
     FM112300 26011G19KT P6SM FEW080 SCT120
     FM120400 VRB04KT P6SM FEW080=

USA.gov is the U.S. government's official web portal to all federal, state and local government web resources and services.